Wetterdaten: Woche 13.06.11 - 19.06.11 (KW24)
Datum Zeit Temp. Innen Temp. Aussen UV X Diff Temp. Feuchte Inne Feuchte Auss Sonnenschein Luftdruck Regen ab 0,1 Wind Sonnenschein T Regendauer Windben
13.06.2011 00:00 22,0 C 15,4 C 0,1 UV-I 0,0 C 48 % 67 % 0 % 1016,5 hPa 0,0 l/m 0,0 km/h (0 Bft) 0,00 h 0,00 h 0,0 km/h (0 Bft)
13.06.2011 01:00 21,8 C 14,9 C 0,1 UV-I 0,0 C 48 % 69 % 0 % 1016,2 hPa 0,0 l/m 0,2 km/h (0 Bft) 0,00 h 0,00 h 0,6 km/h (0 Bft)
13.06.2011 02:00 21,6 C 14,3 C 0,1 UV-I 0,0 C 49 % 70 % 0 % 1015,9 hPa 0,0 l/m 0,5 km/h (0 Bft) 0,00 h 0,00 h 1,1 km/h (1 Bft)
13.06.2011 03:00 21,5 C 15,0 C 0,1 UV-I 0,0 C 49 % 66 % 0 % 1016,0 hPa 0,0 l/m 2,4 km/h (1 Bft) 0,00 h 0,00 h 3,4 km/h (1 Bft)
13.06.2011 04:00 21,5 C 15,1 C 0,1 UV-I 0,0 C 49 % 64 % 0 % 1016,0 hPa 0,0 l/m 1,3 km/h (1 Bft) 0,00 h 0,00 h 1,5 km/h (1 Bft)
13.06.2011 05:00 21,4 C 14,4 C 0,2 UV-I 0,0 C 49 % 68 % 0 % 1015,9 hPa 0,0 l/m 0,8 km/h (0 Bft) 0,00 h 0,00 h 1,4 km/h (1 Bft)
13.06.2011 06:00 21,4 C 14,7 C 0,5 UV-I 0,0 C 49 % 69 % 0 % 1015,7 hPa 0,0 l/m 2,0 km/h (1 Bft) 0,00 h 0,00 h 3,9 km/h (1 Bft)
13.06.2011 07:00 21,5 C 15,3 C 1,1 UV-I 0,4 C 49 % 70 % 13 % 1015,7 hPa 0,0 l/m 3,6 km/h (1 Bft) 0,00 h 0,03 h 4,5 km/h (1 Bft)
13.06.2011 08:00 21,6 C 15,9 C 1,6 UV-I 1,1 C 49 % 71 % 32 % 1016,0 hPa 0,0 l/m 4,6 km/h (1 Bft) 0,00 h 0,00 h 6,1 km/h (2 Bft)
13.06.2011 09:00 21,8 C 16,8 C 4,2 UV-I 3,2 C 50 % 71 % 82 % 1016,2 hPa 0,0 l/m 5,3 km/h (1 Bft) 0,50 h 0,00 h 7,0 km/h (2 Bft)
13.06.2011 10:00 22,0 C 18,1 C 4,0 UV-I 3,5 C 50 % 69 % 90 % 1016,2 hPa 0,0 l/m 6,1 km/h (2 Bft) 0,77 h 0,00 h 7,5 km/h (2 Bft)
13.06.2011 11:00 22,2 C 18,7 C 4,1 UV-I 3,5 C 51 % 70 % 92 % 1016,1 hPa 0,0 l/m 6,3 km/h (2 Bft) 0,77 h 0,00 h 6,0 km/h (2 Bft)
13.06.2011 12:00 22,5 C 19,5 C 3,6 UV-I 3,3 C 51 % 68 % 93 % 1016,1 hPa 0,0 l/m 6,3 km/h (2 Bft) 0,80 h 0,00 h 7,6 km/h (2 Bft)
13.06.2011 13:00 22,7 C 19,9 C 2,7 UV-I 2,3 C 51 % 66 % 66 % 1015,9 hPa 0,0 l/m 5,0 km/h (1 Bft) 0,13 h 0,00 h 5,3 km/h (1 Bft)
13.06.2011 14:00 22,8 C 20,1 C 2,7 UV-I 2,2 C 51 % 66 % 64 % 1015,9 hPa 0,0 l/m 4,4 km/h (1 Bft) 0,07 h 0,00 h 5,7 km/h (1 Bft)
13.06.2011 15:00 22,8 C 20,2 C 2,5 UV-I 1,9 C 51 % 66 % 53 % 1015,9 hPa 0,0 l/m 4,5 km/h (1 Bft) 0,00 h 0,00 h 5,4 km/h (1 Bft)
13.06.2011 16:00 23,0 C 20,8 C 2,2 UV-I 1,9 C 52 % 66 % 55 % 1016,0 hPa 0,0 l/m 4,2 km/h (1 Bft) 0,00 h 0,00 h 5,1 km/h (1 Bft)
13.06.2011 17:00 23,3 C 21,8 C 3,9 UV-I 3,3 C 52 % 64 % 90 % 1016,1 hPa 0,0 l/m 4,2 km/h (1 Bft) 0,80 h 0,00 h 5,2 km/h (1 Bft)
13.06.2011 18:00 23,6 C 21,7 C 1,6 UV-I 1,4 C 51 % 63 % 41 % 1016,0 hPa 0,0 l/m 5,2 km/h (1 Bft) 0,00 h 0,00 h 7,5 km/h (2 Bft)
13.06.2011 19:00 23,4 C 21,2 C 0,8 UV-I 0,1 C 52 % 65 % 4 % 1015,9 hPa 0,0 l/m 3,0 km/h (1 Bft) 0,00 h 0,00 h 3,9 km/h (1 Bft)
13.06.2011 20:00 23,2 C 20,8 C 0,4 UV-I 0,0 C 52 % 66 % 0 % 1016,0 hPa 0,0 l/m 1,7 km/h (1 Bft) 0,00 h 0,00 h 2,9 km/h (1 Bft)
13.06.2011 21:00 23,1 C 20,3 C 0,1 UV-I 0,0 C 53 % 69 % 0 % 1016,0 hPa 0,1 l/m 1,4 km/h (1 Bft) 0,00 h 0,37 h 2,3 km/h (1 Bft)
13.06.2011 22:00 22,8 C 18,1 C 0,1 UV-I 0,0 C 54 % 82 % 0 % 1016,8 hPa 0,5 l/m 0,9 km/h (0 Bft) 0,00 h 0,47 h 0,8 km/h (0 Bft)
13.06.2011 23:00 22,6 C 17,1 C 0,1 UV-I 0,0 C 56 % 87 % 0 % 1016,7 hPa 0,1 l/m 0,0 km/h (0 Bft) 0,00 h 0,00 h 0,1 km/h (0 Bft)
14.06.2011 00:00 22,4 C 16,9 C 0,1 UV-I 0,0 C 57 % 89 % 0 % 1016,7 hPa 0,0 l/m 0,1 km/h (0 Bft) 0,00 h 0,00 h 0,5 km/h (0 Bft)
14.06.2011 01:00 22,3 C 16,9 C 0,1 UV-I 0,0 C 58 % 90 % 0 % 1016,6 hPa 0,0 l/m 0,3 km/h (0 Bft) 0,00 h 0,00 h 0,5 km/h (0 Bft)
14.06.2011 02:00 22,3 C 17,1 C 0,1 UV-I 0,0 C 58 % 90 % 0 % 1016,9 hPa 0,0 l/m 0,4 km/h (0 Bft) 0,00 h 0,00 h 1,1 km/h (0 Bft)
14.06.2011 03:00 22,2 C 16,9 C 0,1 UV-I 0,0 C 59 % 90 % 0 % 1016,9 hPa 0,0 l/m 0,5 km/h (0 Bft) 0,00 h 0,00 h 0,7 km/h (0 Bft)
14.06.2011 04:00 22,2 C 16,5 C 0,1 UV-I 0,0 C 59 % 91 % 0 % 1017,2 hPa 0,0 l/m 0,1 km/h (0 Bft) 0,00 h 0,00 h 0,1 km/h (0 Bft)
14.06.2011 05:00 22,1 C 16,3 C 0,1 UV-I 0,0 C 60 % 91 % 0 % 1017,2 hPa 0,0 l/m 0,1 km/h (0 Bft) 0,00 h 0,00 h 0,4 km/h (0 Bft)
14.06.2011 06:00 22,0 C 16,1 C 0,4 UV-I 0,0 C 60 % 90 % 0 % 1017,5 hPa 0,0 l/m 1,3 km/h (1 Bft) 0,00 h 0,00 h 3,0 km/h (1 Bft)
14.06.2011 07:00 22,1 C 16,2 C 0,7 UV-I 0,3 C 60 % 89 % 9 % 1018,1 hPa 0,0 l/m 1,9 km/h (1 Bft) 0,00 h 0,00 h 1,7 km/h (1 Bft)
14.06.2011 08:00 22,2 C 16,7 C 1,7 UV-I 1,7 C 59 % 88 % 48 % 1018,6 hPa 0,0 l/m 1,9 km/h (1 Bft) 0,13 h 0,00 h 2,8 km/h (1 Bft)
14.06.2011 09:00 22,4 C 16,9 C 0,8 UV-I 0,9 C 59 % 86 % 25 % 1019,4 hPa 0,0 l/m 2,0 km/h (1 Bft) 0,00 h 0,00 h 3,0 km/h (1 Bft)
14.06.2011 10:00 22,4 C 17,1 C 1,5 UV-I 1,3 C 59 % 84 % 38 % 1019,8 hPa 0,0 l/m 2,1 km/h (1 Bft) 0,00 h 0,00 h 2,4 km/h (1 Bft)
14.06.2011 11:00 22,5 C 17,3 C 1,6 UV-I 1,4 C 58 % 83 % 39 % 1020,1 hPa 0,0 l/m 2,9 km/h (1 Bft) 0,00 h 0,00 h 4,0 km/h (1 Bft)
14.06.2011 12:00 22,7 C 17,7 C 2,1 UV-I 1,9 C 58 % 81 % 55 % 1020,5 hPa 0,0 l/m 3,9 km/h (1 Bft) 0,00 h 0,00 h 4,8 km/h (1 Bft)
14.06.2011 13:00 22,8 C 18,4 C 2,9 UV-I 3,0 C 58 % 78 % 85 % 1020,5 hPa 0,0 l/m 4,5 km/h (1 Bft) 0,73 h 0,00 h 4,9 km/h (1 Bft)
14.06.2011 14:00 23,3 C 20,0 C 4,9 UV-I 5,4 C 57 % 70 % 100 % 1020,4 hPa 0,0 l/m 4,5 km/h (1 Bft) 1,00 h 0,00 h 6,4 km/h (2 Bft)
14.06.2011 15:00 24,4 C 22,2 C 5,6 UV-I 6,2 C 54 % 62 % 99 % 1020,6 hPa 0,0 l/m 2,9 km/h (1 Bft) 1,00 h 0,00 h 4,1 km/h (1 Bft)
14.06.2011 16:00 24,8 C 21,5 C 3,2 UV-I 3,0 C 53 % 61 % 83 % 1020,4 hPa 0,0 l/m 3,6 km/h (1 Bft) 0,50 h 0,00 h 4,0 km/h (1 Bft)
14.06.2011 17:00 24,7 C 21,9 C 3,2 UV-I 3,3 C 53 % 62 % 88 % 1020,1 hPa 0,0 l/m 4,7 km/h (1 Bft) 0,67 h 0,00 h 5,1 km/h (1 Bft)
14.06.2011 18:00 24,6 C 21,6 C 2,1 UV-I 2,0 C 53 % 62 % 58 % 1020,1 hPa 0,0 l/m 3,5 km/h (1 Bft) 0,10 h 0,00 h 4,0 km/h (1 Bft)
14.06.2011 19:00 24,4 C 21,5 C 1,5 UV-I 0,4 C 54 % 62 % 12 % 1019,9 hPa 0,0 l/m 2,4 km/h (1 Bft) 0,00 h 0,00 h 2,3 km/h (1 Bft)
14.06.2011 20:00 24,2 C 20,9 C 0,8 UV-I 0,0 C 54 % 61 % 0 % 1019,9 hPa 0,0 l/m 0,6 km/h (0 Bft) 0,00 h 0,00 h 0,8 km/h (0 Bft)
14.06.2011 21:00 23,9 C 19,4 C 0,3 UV-I 0,0 C 54 % 66 % 0 % 1019,8 hPa 0,0 l/m 0,0 km/h (0 Bft) 0,00 h 0,00 h 0,0 km/h (0 Bft)
14.06.2011 22:00 23,5 C 17,1 C 0,1 UV-I 0,0 C 55 % 73 % 0 % 1020,1 hPa 0,0 l/m 0,0 km/h (0 Bft) 0,00 h 0,00 h 0,0 km/h (0 Bft)
14.06.2011 23:00 23,1 C 15,4 C 0,1 UV-I 0,0 C 56 % 79 % 0 % 1020,4 hPa 0,0 l/m 0,0 km/h (0 Bft) 0,00 h 0,00 h 0,0 km/h (0 Bft)
15.06.2011 00:00 22,8 C 14,3 C 0,1 UV-I 0,0 C 56 % 83 % 0 % 1020,2 hPa 0,0 l/m 0,0 km/h (0 Bft) 0,00 h 0,03 h 0,0 km/h (0 Bft)
15.06.2011 01:00 22,5 C 13,5 C 0,1 UV-I 0,0 C 57 % 86 % 0 % 1019,8 hPa 0,0 l/m 0,0 km/h (0 Bft) 0,00 h 0,03 h 0,0 km/h (0 Bft)
15.06.2011 02:00 22,3 C 12,8 C 0,1 UV-I 0,0 C 57 % 88 % 0 % 1019,6 hPa 0,0 l/m 0,0 km/h (0 Bft) 0,00 h 0,03 h 0,0 km/h (0 Bft)
15.06.2011 03:00 22,1 C 12,3 C 0,1 UV-I 0,0 C 57 % 89 % 0 % 1019,2 hPa 0,0 l/m 0,0 km/h (0 Bft) 0,00 h 0,07 h 0,0 km/h (0 Bft)
15.06.2011 04:00 21,9 C 12,4 C 0,1 UV-I 0,0 C 58 % 90 % 0 % 1018,7 hPa 0,0 l/m 1,2 km/h (1 Bft) 0,00 h 0,00 h 1,6 km/h (1 Bft)
15.06.2011 05:00 21,8 C 12,6 C 0,2 UV-I 0,0 C 58 % 90 % 0 % 1018,6 hPa 0,0 l/m 0,1 km/h (0 Bft) 0,00 h 0,03 h 0,3 km/h (0 Bft)
15.06.2011 06:00 21,8 C 13,2 C 0,5 UV-I 0,0 C 58 % 91 % 0 % 1018,6 hPa 0,0 l/m 2,3 km/h (1 Bft) 0,00 h 0,00 h 3,8 km/h (1 Bft)
15.06.2011 07:00 21,9 C 14,8 C 1,0 UV-I 0,4 C 58 % 91 % 13 % 1018,3 hPa 0,0 l/m 4,5 km/h (1 Bft) 0,00 h 0,00 h 6,0 km/h (2 Bft)
15.06.2011 08:00 22,1 C 16,9 C 1,5 UV-I 2,9 C 58 % 89 % 69 % 1018,5 hPa 0,0 l/m 3,6 km/h (1 Bft) 0,47 h 0,00 h 3,7 km/h (1 Bft)
15.06.2011 09:00 22,2 C 17,8 C 0,6 UV-I 0,3 C 58 % 86 % 9 % 1018,6 hPa 0,1 l/m 2,8 km/h (1 Bft) 0,00 h 0,57 h 3,6 km/h (1 Bft)
15.06.2011 10:00 22,4 C 17,9 C 1,3 UV-I 0,4 C 59 % 87 % 13 % 1018,6 hPa 0,1 l/m 4,7 km/h (1 Bft) 0,00 h 0,20 h 5,6 km/h (1 Bft)
15.06.2011 11:00 22,5 C 18,4 C 2,0 UV-I 1,1 C 59 % 88 % 32 % 1018,5 hPa 0,0 l/m 2,5 km/h (1 Bft) 0,10 h 0,20 h 2,9 km/h (1 Bft)
15.06.2011 12:00 23,0 C 21,1 C 4,3 UV-I 4,6 C 59 % 83 % 100 % 1018,4 hPa 0,1 l/m 4,3 km/h (1 Bft) 1,00 h 0,13 h 5,1 km/h (1 Bft)
15.06.2011 13:00 23,4 C 22,8 C 3,6 UV-I 3,9 C 58 % 72 % 94 % 1018,0 hPa 0,0 l/m 2,8 km/h (1 Bft) 0,80 h 0,07 h 3,2 km/h (1 Bft)
15.06.2011 14:00 23,7 C 23,8 C 4,3 UV-I 4,4 C 58 % 67 % 99 % 1017,6 hPa 0,0 l/m 2,3 km/h (1 Bft) 1,00 h 0,00 h 2,7 km/h (1 Bft)
15.06.2011 15:00 23,9 C 23,3 C 1,5 UV-I 1,2 C 57 % 67 % 33 % 1017,2 hPa 0,0 l/m 1,1 km/h (0 Bft) 0,03 h 0,00 h 1,6 km/h (1 Bft)
15.06.2011 16:00 24,1 C 24,2 C 4,1 UV-I 3,6 C 57 % 65 % 96 % 1016,9 hPa 0,0 l/m 2,5 km/h (1 Bft) 0,90 h 0,00 h 3,3 km/h (1 Bft)
15.06.2011 17:00 24,5 C 24,1 C 2,8 UV-I 2,6 C 56 % 63 % 73 % 1016,9 hPa 0,0 l/m 3,4 km/h (1 Bft) 0,33 h 0,00 h 4,7 km/h (1 Bft)
15.06.2011 18:00 24,6 C 24,1 C 2,2 UV-I 2,1 C 56 % 61 % 60 % 1016,3 hPa 0,0 l/m 3,0 km/h (1 Bft) 0,23 h 0,00 h 3,6 km/h (1 Bft)
15.06.2011 19:00 24,5 C 23,9 C 1,3 UV-I 0,7 C 56 % 58 % 21 % 1016,2 hPa 0,0 l/m 2,8 km/h (1 Bft) 0,00 h 0,00 h 3,4 km/h (1 Bft)
15.06.2011 20:00 24,4 C 23,5 C 0,7 UV-I 0,2 C 56 % 57 % 6 % 1016,1 hPa 0,0 l/m 2,9 km/h (1 Bft) 0,00 h 0,00 h 2,8 km/h (1 Bft)
15.06.2011 21:00 24,2 C 22,2 C 0,2 UV-I 0,0 C 56 % 59 % 0 % 1016,3 hPa 0,0 l/m 0,5 km/h (0 Bft) 0,00 h 0,00 h 1,0 km/h (0 Bft)
15.06.2011 22:00 24,0 C 20,5 C 0,0 UV-I 0,0 C 56 % 70 % 0 % 1016,6 hPa 0,0 l/m 1,5 km/h (1 Bft) 0,00 h 0,00 h 2,5 km/h (1 Bft)
15.06.2011 23:00 23,6 C 18,3 C 0,0 UV-I 0,0 C 57 % 76 % 0 % 1016,8 hPa 0,0 l/m 0,1 km/h (0 Bft) 0,00 h 0,00 h 0,1 km/h (0 Bft)
16.06.2011 00:00 23,3 C 16,6 C 0,0 UV-I 0,0 C 58 % 80 % 0 % 1016,5 hPa 0,0 l/m 0,0 km/h (0 Bft) 0,00 h 0,07 h 0,0 km/h (0 Bft)
16.06.2011 01:00 23,0 C 15,4 C 0,1 UV-I 0,0 C 59 % 84 % 0 % 1016,1 hPa 0,0 l/m 0,0 km/h (0 Bft) 0,00 h 0,03 h 0,0 km/h (0 Bft)
16.06.2011 02:00 22,8 C 14,8 C 0,0 UV-I 0,0 C 59 % 87 % 0 % 1015,5 hPa 0,0 l/m 0,0 km/h (0 Bft) 0,00 h 0,07 h 0,0 km/h (0 Bft)
16.06.2011 03:00 22,7 C 14,8 C 0,0 UV-I 0,0 C 59 % 89 % 0 % 1015,3 hPa 0,0 l/m 0,0 km/h (0 Bft) 0,00 h 0,00 h 0,0 km/h (0 Bft)
16.06.2011 04:00 22,6 C 15,5 C 0,1 UV-I 0,0 C 60 % 90 % 0 % 1014,7 hPa 0,0 l/m 0,0 km/h (0 Bft) 0,00 h 0,00 h 0,0 km/h (0 Bft)
16.06.2011 05:00 22,6 C 16,0 C 0,1 UV-I 0,0 C 60 % 90 % 0 % 1014,0 hPa 0,0 l/m 0,0 km/h (0 Bft) 0,00 h 0,00 h 0,1 km/h (0 Bft)
16.06.2011 06:00 22,6 C 16,6 C 0,2 UV-I 0,1 C 60 % 89 % 3 % 1013,7 hPa 0,0 l/m 0,4 km/h (0 Bft) 0,00 h 0,00 h 1,3 km/h (1 Bft)
16.06.2011 07:00 22,7 C 17,6 C 0,6 UV-I 0,3 C 60 % 87 % 10 % 1013,4 hPa 0,0 l/m 3,0 km/h (1 Bft) 0,00 h 0,00 h 4,4 km/h (1 Bft)
16.06.2011 08:00 22,9 C 18,5 C 0,8 UV-I 0,6 C 60 % 83 % 17 % 1012,9 hPa 0,0 l/m 3,4 km/h (1 Bft) 0,00 h 0,00 h 4,4 km/h (1 Bft)
16.06.2011 09:00 23,0 C 19,6 C 1,5 UV-I 1,2 C 59 % 76 % 34 % 1012,7 hPa 0,0 l/m 4,0 km/h (1 Bft) 0,00 h 0,00 h 6,2 km/h (2 Bft)
16.06.2011 10:00 23,3 C 21,1 C 3,0 UV-I 2,6 C 59 % 71 % 75 % 1012,4 hPa 0,0 l/m 4,8 km/h (1 Bft) 0,47 h 0,00 h 6,5 km/h (2 Bft)
16.06.2011 11:00 23,6 C 22,1 C 2,9 UV-I 2,6 C 58 % 68 % 75 % 1012,0 hPa 0,0 l/m 5,0 km/h (1 Bft) 0,23 h 0,00 h 5,7 km/h (1 Bft)
16.06.2011 12:00 23,8 C 22,2 C 2,3 UV-I 1,9 C 57 % 65 % 54 % 1011,7 hPa 0,0 l/m 7,7 km/h (2 Bft) 0,10 h 0,17 h 9,9 km/h (2 Bft)
16.06.2011 13:00 23,9 C 19,5 C 2,2 UV-I 1,5 C 57 % 76 % 42 % 1011,9 hPa 0,0 l/m 7,0 km/h (2 Bft) 0,10 h 0,07 h 8,4 km/h (2 Bft)
16.06.2011 14:00 23,8 C 19,1 C 1,4 UV-I 0,7 C 58 % 79 % 20 % 1012,3 hPa 0,0 l/m 5,2 km/h (1 Bft) 0,00 h 0,00 h 6,2 km/h (2 Bft)
16.06.2011 15:00 23,8 C 20,0 C 3,3 UV-I 2,6 C 58 % 72 % 71 % 1012,3 hPa 0,0 l/m 5,7 km/h (1 Bft) 0,47 h 0,00 h 5,9 km/h (2 Bft)
16.06.2011 16:00 24,4 C 21,8 C 6,0 UV-I 4,6 C 56 % 61 % 99 % 1011,8 hPa 0,0 l/m 7,3 km/h (2 Bft) 1,00 h 0,00 h 8,5 km/h (2 Bft)
16.06.2011 17:00 25,0 C 21,4 C 2,7 UV-I 2,0 C 53 % 61 % 49 % 1011,9 hPa 0,0 l/m 6,5 km/h (2 Bft) 0,30 h 0,07 h 6,7 km/h (2 Bft)
16.06.2011 18:00 24,7 C 17,9 C 0,8 UV-I 0,4 C 53 % 70 % 12 % 1012,4 hPa 3,9 l/m 6,0 km/h (2 Bft) 0,00 h 0,57 h 7,2 km/h (2 Bft)
16.06.2011 19:00 24,1 C 14,8 C 1,2 UV-I 0,2 C 55 % 87 % 6 % 1012,8 hPa 0,2 l/m 1,3 km/h (1 Bft) 0,00 h 0,30 h 1,1 km/h (1 Bft)
16.06.2011 20:00 23,5 C 15,1 C 0,7 UV-I 0,2 C 56 % 88 % 4 % 1013,3 hPa 0,0 l/m 2,2 km/h (1 Bft) 0,00 h 0,00 h 4,2 km/h (1 Bft)
16.06.2011 21:00 23,1 C 14,8 C 0,2 UV-I 0,0 C 57 % 87 % 0 % 1014,0 hPa 0,0 l/m 5,3 km/h (1 Bft) 0,00 h 0,00 h 6,3 km/h (2 Bft)
16.06.2011 22:00 22,6 C 13,9 C 0,1 UV-I 0,0 C 55 % 82 % 0 % 1014,7 hPa 0,0 l/m 5,3 km/h (1 Bft) 0,00 h 0,00 h 6,6 km/h (2 Bft)
16.06.2011 23:00 22,2 C 13,0 C 0,1 UV-I 0,0 C 54 % 80 % 0 % 1015,2 hPa 0,0 l/m 2,5 km/h (1 Bft) 0,00 h 0,00 h 3,2 km/h (1 Bft)
17.06.2011 00:00 21,9 C 12,3 C 0,1 UV-I 0,0 C 54 % 80 % 0 % 1015,6 hPa 0,0 l/m 2,0 km/h (1 Bft) 0,00 h 0,00 h 2,5 km/h (1 Bft)
17.06.2011 01:00 21,7 C 12,1 C 0,1 UV-I 0,0 C 53 % 78 % 0 % 1015,9 hPa 0,0 l/m 2,0 km/h (1 Bft) 0,00 h 0,00 h 3,0 km/h (1 Bft)
17.06.2011 02:00 21,5 C 11,5 C 0,1 UV-I 0,0 C 53 % 78 % 0 % 1016,1 hPa 0,0 l/m 1,6 km/h (1 Bft) 0,00 h 0,00 h 2,7 km/h (1 Bft)
17.06.2011 03:00 21,3 C 11,1 C 0,1 UV-I 0,0 C 53 % 79 % 0 % 1015,8 hPa 0,0 l/m 1,0 km/h (0 Bft) 0,00 h 0,00 h 1,6 km/h (1 Bft)
17.06.2011 04:00 21,2 C 10,8 C 0,1 UV-I 0,0 C 53 % 80 % 0 % 1015,9 hPa 0,0 l/m 0,7 km/h (0 Bft) 0,00 h 0,00 h 1,3 km/h (1 Bft)
17.06.2011 05:00 21,0 C 10,7 C 0,1 UV-I 0,0 C 53 % 81 % 0 % 1016,1 hPa 0,0 l/m 0,9 km/h (0 Bft) 0,00 h 0,00 h 1,6 km/h (1 Bft)
17.06.2011 06:00 20,9 C 10,7 C 0,4 UV-I 0,0 C 53 % 82 % 0 % 1016,0 hPa 0,0 l/m 0,9 km/h (0 Bft) 0,00 h 0,00 h 0,8 km/h (0 Bft)
17.06.2011 07:00 20,9 C 11,9 C 1,0 UV-I 0,0 C 53 % 82 % 0 % 1016,2 hPa 0,0 l/m 3,7 km/h (1 Bft) 0,00 h 0,00 h 4,4 km/h (1 Bft)
17.06.2011 08:00 21,0 C 13,5 C 3,0 UV-I 4,0 C 53 % 78 % 81 % 1016,3 hPa 0,0 l/m 5,3 km/h (1 Bft) 0,77 h 0,00 h 7,1 km/h (2 Bft)
17.06.2011 09:00 21,1 C 15,7 C 8,6 UV-I 6,4 C 52 % 69 % 100 % 1016,0 hPa 0,0 l/m 3,9 km/h (1 Bft) 1,00 h 0,00 h 4,0 km/h (1 Bft)
17.06.2011 10:00 21,2 C 17,2 C 8,7 UV-I 6,4 C 51 % 60 % 100 % 1015,6 hPa 0,0 l/m 5,7 km/h (1 Bft) 1,00 h 0,00 h 6,9 km/h (2 Bft)
17.06.2011 11:00 21,5 C 18,6 C 6,5 UV-I 6,8 C 50 % 56 % 100 % 1015,2 hPa 0,0 l/m 5,1 km/h (1 Bft) 1,00 h 0,00 h 6,5 km/h (2 Bft)
17.06.2011 12:00 21,8 C 19,7 C 3,4 UV-I 6,3 C 50 % 50 % 100 % 1014,5 hPa 0,0 l/m 5,1 km/h (1 Bft) 1,00 h 0,00 h 6,7 km/h (2 Bft)
17.06.2011 13:00 22,3 C 20,1 C 3,9 UV-I 3,9 C 48 % 47 % 100 % 1013,8 hPa 0,0 l/m 5,0 km/h (1 Bft) 1,00 h 0,00 h 5,1 km/h (1 Bft)
17.06.2011 14:00 22,8 C 20,6 C 4,0 UV-I 3,7 C 47 % 47 % 97 % 1013,2 hPa 0,0 l/m 4,7 km/h (1 Bft) 1,00 h 0,00 h 5,7 km/h (1 Bft)
17.06.2011 15:00 23,0 C 20,8 C 3,7 UV-I 3,0 C 47 % 49 % 86 % 1012,3 hPa 0,0 l/m 4,8 km/h (1 Bft) 0,80 h 0,00 h 5,9 km/h (2 Bft)
17.06.2011 16:00 23,2 C 20,8 C 2,5 UV-I 2,1 C 47 % 49 % 61 % 1011,5 hPa 0,0 l/m 2,4 km/h (1 Bft) 0,07 h 0,00 h 2,5 km/h (1 Bft)
17.06.2011 17:00 23,1 C 19,8 C 1,0 UV-I 0,3 C 47 % 54 % 8 % 1010,9 hPa 0,0 l/m 1,5 km/h (1 Bft) 0,00 h 0,43 h 2,1 km/h (1 Bft)
17.06.2011 18:00 22,9 C 17,8 C 0,7 UV-I 0,0 C 49 % 64 % 0 % 1010,2 hPa 0,1 l/m 0,1 km/h (0 Bft) 0,00 h 0,27 h 0,3 km/h (0 Bft)
17.06.2011 19:00 22,7 C 17,3 C 0,3 UV-I 0,0 C 50 % 70 % 0 % 1009,5 hPa 0,1 l/m 0,3 km/h (0 Bft) 0,00 h 0,93 h 0,5 km/h (0 Bft)
17.06.2011 20:00 22,5 C 16,4 C 0,1 UV-I 0,0 C 52 % 77 % 0 % 1008,6 hPa 0,4 l/m 0,0 km/h (0 Bft) 0,00 h 1,00 h 0,0 km/h (0 Bft)
17.06.2011 21:00 22,3 C 15,2 C 0,1 UV-I 0,0 C 53 % 83 % 0 % 1007,8 hPa 0,5 l/m 0,3 km/h (0 Bft) 0,00 h 0,70 h 0,4 km/h (0 Bft)
17.06.2011 22:00 22,1 C 14,4 C 0,0 UV-I 0,0 C 54 % 85 % 0 % 1006,8 hPa 0,0 l/m 0,9 km/h (0 Bft) 0,00 h 0,07 h 1,3 km/h (1 Bft)
17.06.2011 23:00 21,8 C 14,0 C 0,0 UV-I 0,0 C 55 % 86 % 0 % 1005,7 hPa 0,0 l/m 0,9 km/h (0 Bft) 0,00 h 0,03 h 1,6 km/h (1 Bft)
18.06.2011 00:00 21,8 C 13,8 C 0,0 UV-I 0,0 C 56 % 87 % 0 % 1004,6 hPa 0,1 l/m 2,1 km/h (1 Bft) 0,00 h 0,30 h 2,7 km/h (1 Bft)
18.06.2011 01:00 21,6 C 13,7 C 0,0 UV-I 0,0 C 56 % 89 % 0 % 1003,8 hPa 1,3 l/m 2,6 km/h (1 Bft) 0,00 h 0,67 h 3,9 km/h (1 Bft)
18.06.2011 02:00 21,4 C 13,4 C 0,0 UV-I 0,0 C 57 % 90 % 0 % 1002,6 hPa 0,1 l/m 5,5 km/h (1 Bft) 0,00 h 0,00 h 7,4 km/h (2 Bft)
18.06.2011 03:00 21,5 C 13,6 C 0,0 UV-I 0,0 C 57 % 91 % 0 % 1002,0 hPa 0,0 l/m 5,7 km/h (1 Bft) 0,00 h 0,00 h 6,4 km/h (2 Bft)
18.06.2011 04:00 21,3 C 14,0 C 0,0 UV-I 0,0 C 58 % 91 % 0 % 1001,6 hPa 0,0 l/m 3,1 km/h (1 Bft) 0,00 h 0,00 h 3,8 km/h (1 Bft)
18.06.2011 05:00 21,4 C 14,6 C 0,0 UV-I 0,0 C 58 % 90 % 0 % 1001,9 hPa 0,0 l/m 4,1 km/h (1 Bft) 0,00 h 0,17 h 5,9 km/h (2 Bft)
18.06.2011 06:00 21,4 C 14,8 C 0,0 UV-I 0,0 C 58 % 87 % 0 % 1002,0 hPa 0,0 l/m 4,5 km/h (1 Bft) 0,00 h 0,00 h 6,8 km/h (2 Bft)
18.06.2011 07:00 21,4 C 15,2 C 0,3 UV-I 0,0 C 57 % 84 % 1 % 1002,5 hPa 0,3 l/m 4,4 km/h (1 Bft) 0,00 h 0,23 h 6,3 km/h (2 Bft)
18.06.2011 08:00 21,4 C 14,6 C 2,4 UV-I 0,8 C 58 % 86 % 23 % 1002,9 hPa 0,5 l/m 7,6 km/h (2 Bft) 0,17 h 0,20 h 10,4 km/h (2 Bft)
18.06.2011 09:00 21,5 C 15,0 C 4,3 UV-I 2,6 C 55 % 78 % 72 % 1003,5 hPa 0,0 l/m 12,1 km/h (2 Bft) 0,37 h 0,00 h 13,1 km/h (3 Bft)
18.06.2011 10:00 21,5 C 15,6 C 5,4 UV-I 3,4 C 52 % 68 % 87 % 1004,0 hPa 0,0 l/m 13,1 km/h (3 Bft) 0,70 h 0,00 h 13,6 km/h (3 Bft)
18.06.2011 11:00 21,6 C 16,5 C 5,0 UV-I 4,4 C 50 % 64 % 100 % 1004,4 hPa 0,0 l/m 13,6 km/h (3 Bft) 1,00 h 0,00 h 14,7 km/h (3 Bft)
18.06.2011 12:00 21,7 C 16,1 C 2,2 UV-I 1,8 C 50 % 69 % 51 % 1004,9 hPa 0,2 l/m 9,1 km/h (2 Bft) 0,13 h 0,17 h 9,5 km/h (2 Bft)
18.06.2011 13:00 21,9 C 16,5 C 3,7 UV-I 2,7 C 50 % 66 % 76 % 1005,0 hPa 0,0 l/m 12,5 km/h (3 Bft) 0,40 h 0,03 h 13,9 km/h (3 Bft)
18.06.2011 14:00 22,3 C 17,5 C 4,4 UV-I 3,6 C 49 % 64 % 96 % 1005,0 hPa 0,0 l/m 11,4 km/h (2 Bft) 0,87 h 0,00 h 12,3 km/h (3 Bft)
18.06.2011 15:00 23,2 C 19,0 C 5,0 UV-I 4,1 C 47 % 56 % 94 % 1005,0 hPa 0,0 l/m 11,5 km/h (2 Bft) 0,87 h 0,00 h 13,8 km/h (3 Bft)
18.06.2011 16:00 23,3 C 14,1 C 1,7 UV-I 0,5 C 47 % 73 % 13 % 1006,1 hPa 2,0 l/m 8,2 km/h (2 Bft) 0,07 h 0,53 h 8,5 km/h (2 Bft)
18.06.2011 17:00 23,4 C 15,3 C 5,8 UV-I 4,1 C 49 % 78 % 98 % 1006,1 hPa 0,0 l/m 7,0 km/h (2 Bft) 0,97 h 0,00 h 8,3 km/h (2 Bft)
18.06.2011 18:00 23,6 C 16,7 C 2,2 UV-I 2,6 C 47 % 67 % 71 % 1006,0 hPa 0,0 l/m 9,1 km/h (2 Bft) 0,47 h 0,00 h 9,3 km/h (2 Bft)
18.06.2011 19:00 23,2 C 16,8 C 1,4 UV-I 0,3 C 47 % 64 % 8 % 1005,7 hPa 0,0 l/m 7,3 km/h (2 Bft) 0,00 h 0,00 h 8,0 km/h (2 Bft)
18.06.2011 20:00 22,7 C 16,2 C 0,8 UV-I 0,0 C 47 % 63 % 0 % 1005,3 hPa 0,0 l/m 6,0 km/h (2 Bft) 0,00 h 0,00 h 7,2 km/h (2 Bft)
18.06.2011 21:00 22,2 C 15,5 C 0,2 UV-I 0,0 C 48 % 66 % 0 % 1005,6 hPa 0,0 l/m 6,3 km/h (2 Bft) 0,00 h 0,00 h 8,3 km/h (2 Bft)
18.06.2011 22:00 21,8 C 14,7 C 0,0 UV-I 0,0 C 48 % 69 % 0 % 1006,1 hPa 0,0 l/m 6,8 km/h (2 Bft) 0,00 h 0,00 h 7,1 km/h (2 Bft)
18.06.2011 23:00 21,4 C 14,3 C 0,0 UV-I 0,0 C 49 % 70 % 0 % 1006,1 hPa 0,0 l/m 8,6 km/h (2 Bft) 0,00 h 0,00 h 9,2 km/h (2 Bft)
19.06.2011 00:00 21,2 C 13,4 C 0,0 UV-I 0,0 C 50 % 76 % 0 % 1006,4 hPa 0,0 l/m 7,0 km/h (2 Bft) 0,00 h 0,00 h 7,6 km/h (2 Bft)
19.06.2011 01:00 20,9 C 12,8 C 0,0 UV-I 0,0 C 50 % 77 % 0 % 1006,4 hPa 0,0 l/m 7,1 km/h (2 Bft) 0,00 h 0,00 h 9,4 km/h (2 Bft)
19.06.2011 02:00 20,8 C 12,9 C 0,0 UV-I 0,0 C 51 % 78 % 0 % 1005,9 hPa 0,0 l/m 7,5 km/h (2 Bft) 0,00 h 0,00 h 8,8 km/h (2 Bft)
19.06.2011 03:00 20,6 C 13,2 C 0,0 UV-I 0,0 C 51 % 78 % 0 % 1005,8 hPa 0,0 l/m 7,9 km/h (2 Bft) 0,00 h 0,00 h 8,5 km/h (2 Bft)
19.06.2011 04:00 20,6 C 13,0 C 0,0 UV-I 0,0 C 51 % 78 % 0 % 1005,7 hPa 0,0 l/m 9,7 km/h (2 Bft) 0,00 h 0,10 h 11,2 km/h (2 Bft)
19.06.2011 05:00 20,4 C 12,9 C 0,0 UV-I 0,0 C 51 % 79 % 0 % 1006,2 hPa 0,0 l/m 8,8 km/h (2 Bft) 0,00 h 0,00 h 10,4 km/h (2 Bft)
19.06.2011 06:00 20,4 C 12,8 C 0,3 UV-I 0,0 C 52 % 80 % 0 % 1006,2 hPa 0,0 l/m 8,9 km/h (2 Bft) 0,00 h 0,00 h 10,5 km/h (2 Bft)
19.06.2011 07:00 20,4 C 13,0 C 0,8 UV-I 0,2 C 52 % 80 % 6 % 1006,3 hPa 0,0 l/m 9,0 km/h (2 Bft) 0,00 h 0,00 h 10,7 km/h (2 Bft)
19.06.2011 08:00 20,4 C 13,5 C 1,7 UV-I 1,2 C 52 % 79 % 35 % 1006,5 hPa 0,0 l/m 10,0 km/h (2 Bft) 0,00 h 0,00 h 12,1 km/h (2 Bft)
19.06.2011 09:00 20,6 C 14,1 C 1,9 UV-I 1,4 C 52 % 77 % 40 % 1007,2 hPa 0,0 l/m 9,4 km/h (2 Bft) 0,00 h 0,07 h 10,2 km/h (2 Bft)
19.06.2011 10:00 20,7 C 13,5 C 1,2 UV-I 0,0 C 53 % 82 % 1 % 1007,9 hPa 0,3 l/m 7,3 km/h (2 Bft) 0,00 h 0,97 h 8,2 km/h (2 Bft)
19.06.2011 11:00 20,7 C 14,4 C 4,1 UV-I 3,0 C 54 % 84 % 69 % 1008,4 hPa 0,2 l/m 9,2 km/h (2 Bft) 0,60 h 0,13 h 9,3 km/h (2 Bft)
19.06.2011 12:00 21,0 C 16,0 C 3,3 UV-I 2,5 C 53 % 74 % 71 % 1008,8 hPa 0,0 l/m 10,8 km/h (2 Bft) 0,40 h 0,00 h 10,9 km/h (2 Bft)
19.06.2011 13:00 21,3 C 16,5 C 3,1 UV-I 1,8 C 52 % 70 % 52 % 1009,4 hPa 0,0 l/m 11,7 km/h (2 Bft) 0,03 h 0,10 h 13,2 km/h (3 Bft)
19.06.2011 14:00 21,8 C 17,8 C 5,4 UV-I 4,2 C 52 % 68 % 98 % 1010,3 hPa 0,0 l/m 14,0 km/h (3 Bft) 0,97 h 0,00 h 15,2 km/h (3 Bft)
19.06.2011 15:00 22,4 C 17,5 C 3,2 UV-I 2,0 C 50 % 67 % 58 % 1011,2 hPa 0,0 l/m 13,3 km/h (3 Bft) 0,10 h 0,00 h 13,7 km/h (3 Bft)
19.06.2011 16:00 22,3 C 17,3 C 3,0 UV-I 1,8 C 50 % 67 % 52 % 1011,7 hPa 0,0 l/m 12,8 km/h (3 Bft) 0,00 h 0,00 h 16,2 km/h (3 Bft)
19.06.2011 17:00 22,3 C 17,7 C 1,8 UV-I 1,3 C 50 % 66 % 38 % 1012,4 hPa 0,0 l/m 8,2 km/h (2 Bft) 0,00 h 0,03 h 8,7 km/h (2 Bft)
19.06.2011 18:00 22,1 C 17,5 C 1,0 UV-I 0,5 C 51 % 67 % 16 % 1012,6 hPa 0,0 l/m 4,1 km/h (1 Bft) 0,00 h 0,00 h 5,4 km/h (1 Bft)
19.06.2011 19:00 21,9 C 16,6 C 0,3 UV-I 0,0 C 52 % 71 % 0 % 1013,1 hPa 0,7 l/m 3,0 km/h (1 Bft) 0,00 h 0,50 h 3,3 km/h (1 Bft)
19.06.2011 20:00 21,6 C 14,9 C 0,4 UV-I 0,0 C 53 % 77 % 0 % 1013,6 hPa 0,0 l/m 5,7 km/h (1 Bft) 0,00 h 0,07 h 7,2 km/h (2 Bft)
19.06.2011 21:00 21,3 C 14,0 C 0,2 UV-I 0,0 C 53 % 80 % 0 % 1014,4 hPa 0,0 l/m 6,7 km/h (2 Bft) 0,00 h 0,17 h 7,9 km/h (2 Bft)
19.06.2011 22:00 21,0 C 13,8 C 0,1 UV-I 0,0 C 54 % 80 % 0 % 1015,0 hPa 0,0 l/m 2,8 km/h (1 Bft) 0,00 h 0,00 h 3,0 km/h (1 Bft)
19.06.2011 23:00 20,9 C 13,2 C 0,1 UV-I 0,0 C 54 % 80 % 0 % 1015,4 hPa 0,0 l/m 0,2 km/h (0 Bft) 0,00 h 0,00 h 0,3 km/h (0 Bft)
Min-Datum _ 19.06.11 17.06.11 13.06.11 13.06.11 18.06.11 17.06.11 13.06.11 18.06.11 - 13.06.11 - - 13.06.11
_ Min-Zeit 05:22 06:02 21:44 00:00 16:02 13:08 00:00 04:46 - 00:00 - - 00:00
Minimum _ 20,4 C 10,4 C 0,0 UV-I 0,0 C 45 % 45 % 0 % 1001,4 hPa - 0,0 km/h (0 Bft) - - 0,0 km/h (0 Bft)
Max-Datum _ 16.06.11 15.06.11 17.06.11 17.06.11 14.06.11 14.06.11 13.06.11 14.06.11 16.06.11 18.06.11 13.06.11 13.06.11 16.06.11
_ Max-Zeit 17:04 17:00 09:50 11:40 05:06 04:06 09:42 15:46 18:32 11:34 09:28 07:12 18:26
Maximum _ 25,0 C 24,7 C 9,7 UV-I 7,4 C 60 % 91 % 100 % 1020,8 hPa 3,9 l/m 17,7 km/h
NO (3 Bft)
0,03 h 0,03 h 54,1 km/h
SO (7 Bft)
Durchschnitt _ 22,4 C 16,9 C 1,5 UV-I 1,2 C 54 % 75 % 30 % 1013,3 hPa #11,8 l/m 4,1 km/h (1 Bft) #31:14 h #11:26 h 4,9 km/h (1 Bft)
© 2012 W. Hausmann